Chesnee, South Carolina
Current Conditions -  °F | °C
As of 9:55 AM on Thursday 30 Oct 2014 (Local Time) from KEHO Reporting Station
Clear Clear  
Wind Chill: 11°   Ceiling: Unl
Heat Index: 11°   Visibility: 10mi
Dew Point:   Wind: 6mph
Humidity: 65%   Direction: 30°NNE
Pressure: 30.09"   Gusts: NA
Location:  35.15°N, 81.86°W
Report Text: KEHO 301355Z AUTO 03005KT 10SM CLR 11/05 A3009 RMK AO2 T01110048
Loading
Personal Weather Stations






























Interactive Weather Map
Tropical Storm Tracking
New forecast layout! Learn more

10-Day Weather Forecast

Advertisements
Track Severe Weather on mobile